createdAt,value
2018-02-13T00:00:42.328Z,101057.22
2018-02-13T00:03:09.873Z,101059.08
2018-02-13T00:05:37.405Z,101060.45
2018-02-13T00:08:04.931Z,101057.80
2018-02-13T00:10:32.473Z,101054.52
2018-02-13T00:13:00.026Z,101057.97
2018-02-13T00:15:27.592Z,101064.04
2018-02-13T00:17:55.120Z,101069.50
2018-02-13T00:20:22.629Z,101067.34
2018-02-13T00:22:50.872Z,101069.64
2018-02-13T00:25:18.385Z,101069.56
2018-02-13T00:27:45.952Z,101077.49
2018-02-13T00:30:13.461Z,101074.44
2018-02-13T00:32:40.993Z,101072.25
2018-02-13T00:35:08.562Z,101073.45
2018-02-13T00:37:36.069Z,101075.33
2018-02-13T00:40:03.579Z,101082.62
2018-02-13T00:42:31.141Z,101073.11
2018-02-13T00:44:58.681Z,101070.06
2018-02-13T00:47:26.191Z,101075.80
2018-02-13T00:49:53.745Z,101073.05
2018-02-13T00:52:21.281Z,101075.11
2018-02-13T00:54:48.798Z,101073.92
2018-02-13T00:57:16.325Z,101077.33
2018-02-13T00:59:43.834Z,101074.55
2018-02-13T01:02:11.402Z,101076.55
2018-02-13T01:04:38.923Z,101072.00
2018-02-13T01:07:06.458Z,101076.36
2018-02-13T01:09:34.099Z,101083.06
2018-02-13T01:12:01.647Z,101081.52
2018-02-13T01:14:29.175Z,101077.99
2018-02-13T01:16:56.788Z,101082.68
2018-02-13T01:19:24.323Z,101084.98
2018-02-13T01:21:51.862Z,101081.30
2018-02-13T01:24:19.545Z,101086.50
2018-02-13T01:26:47.122Z,101085.86
2018-02-13T01:29:14.637Z,101083.50
2018-02-13T01:31:42.191Z,101077.31
2018-02-13T01:34:09.719Z,101076.07
2018-02-13T01:36:37.359Z,101081.66
2018-02-13T01:39:04.884Z,101084.54
2018-02-13T01:41:32.391Z,101085.73
2018-02-13T01:43:59.902Z,101086.26
2018-02-13T01:46:27.479Z,101092.77
2018-02-13T01:48:55.015Z,101093.97
2018-02-13T01:51:22.516Z,101092.19
2018-02-13T01:53:50.032Z,101087.58
2018-02-13T01:56:17.629Z,101088.13
2018-02-13T01:58:45.170Z,101091.50
2018-02-13T02:01:12.734Z,101095.19
2018-02-13T02:03:40.263Z,101098.06
2018-02-13T02:06:07.803Z,101103.16
2018-02-13T02:08:35.326Z,101097.92
2018-02-13T02:11:02.987Z,101099.39
2018-02-13T02:13:30.516Z,101100.31
2018-02-13T02:15:58.032Z,101093.78
2018-02-13T02:18:25.589Z,101098.34
2018-02-13T02:20:53.109Z,101099.81
2018-02-13T02:23:20.613Z,101094.37
2018-02-13T02:25:48.129Z,101090.47
2018-02-13T02:28:15.793Z,101089.19
2018-02-13T02:30:43.308Z,101093.19
2018-02-13T02:33:10.894Z,101094.29
2018-02-13T02:35:38.421Z,101098.37
2018-02-13T02:38:05.934Z,101092.95
2018-02-13T02:40:33.481Z,101095.24
2018-02-13T02:43:05.972Z,101101.49
2018-02-13T02:45:33.519Z,101101.85
2018-02-13T02:48:01.042Z,101101.45
2018-02-13T02:50:28.577Z,101107.52
2018-02-13T02:52:56.184Z,101097.91
2018-02-13T02:55:23.846Z,101099.97
2018-02-13T02:57:51.348Z,101097.49
2018-02-13T03:00:18.877Z,101097.54
2018-02-13T03:02:46.393Z,101093.51
2018-02-13T03:05:13.904Z,101094.70
2018-02-13T03:07:41.457Z,101092.58
2018-02-13T03:10:08.973Z,101094.45
2018-02-13T03:12:36.562Z,101091.68
2018-02-13T03:15:04.108Z,101090.94
2018-02-13T03:17:31.695Z,101099.91
2018-02-13T03:19:59.238Z,101094.36
2018-02-13T03:22:26.766Z,101094.47
2018-02-13T03:24:54.314Z,101093.00
2018-02-13T03:27:22.037Z,101091.78
2018-02-13T03:29:49.592Z,101098.33
2018-02-13T03:32:17.132Z,101098.13
2018-02-13T03:34:44.672Z,101102.61
2018-02-13T03:37:12.275Z,101104.38
2018-02-13T03:39:39.808Z,101108.27
2018-02-13T03:42:07.353Z,101110.64
2018-02-13T03:44:34.866Z,101110.39
2018-02-13T03:47:02.409Z,101105.01
2018-02-13T03:49:29.950Z,101106.97
2018-02-13T03:51:57.452Z,101109.23
2018-02-13T03:54:24.958Z,101105.67
2018-02-13T03:56:52.531Z,101105.18
2018-02-13T03:59:20.065Z,101103.93
2018-02-13T04:01:47.882Z,101108.34
2018-02-13T04:04:15.426Z,101099.02
2018-02-13T04:06:42.937Z,101102.69
2018-02-13T04:09:10.471Z,101103.78
2018-02-13T04:11:38.013Z,101102.31
2018-02-13T04:14:05.545Z,101101.98
2018-02-13T04:16:33.120Z,101099.95
2018-02-13T04:19:00.687Z,101103.53
2018-02-13T04:21:28.239Z,101108.66
2018-02-13T04:23:55.781Z,101117.77
2018-02-13T04:26:23.438Z,101117.05
2018-02-13T04:28:50.973Z,101115.22
2018-02-13T04:31:18.506Z,101115.02
2018-02-13T04:33:46.072Z,101108.50
2018-02-13T04:36:13.586Z,101104.81
2018-02-13T04:38:41.119Z,101103.77
2018-02-13T04:41:08.656Z,101110.12
2018-02-13T04:43:36.188Z,101110.45
2018-02-13T04:46:03.712Z,101107.89
2018-02-13T04:48:31.256Z,101110.22
2018-02-13T04:50:58.765Z,101109.52
2018-02-13T04:53:26.304Z,101106.69
2018-02-13T04:55:53.976Z,101111.67
2018-02-13T04:58:21.504Z,101111.89
2018-02-13T05:00:49.095Z,101106.45
2018-02-13T05:03:16.647Z,101106.03
2018-02-13T05:05:44.162Z,101113.37
2018-02-13T05:08:11.681Z,101117.94
2018-02-13T05:10:39.254Z,101115.91
2018-02-13T05:13:06.966Z,101114.16
2018-02-13T05:15:34.497Z,101117.03
2018-02-13T05:18:02.161Z,101117.80
2018-02-13T05:20:29.760Z,101118.45
2018-02-13T05:22:57.336Z,101113.13
2018-02-13T05:25:24.873Z,101111.52
2018-02-13T05:27:52.429Z,101113.06
2018-02-13T05:30:19.937Z,101115.43
2018-02-13T05:32:47.449Z,101111.44
2018-02-13T05:35:15.003Z,101114.27
2018-02-13T05:37:42.538Z,101119.13
2018-02-13T05:40:10.049Z,101116.64
2018-02-13T05:42:37.582Z,101116.98
2018-02-13T05:45:05.121Z,101116.86
2018-02-13T05:47:32.657Z,101121.39
2018-02-13T05:50:00.208Z,101118.03
2018-02-13T05:52:27.721Z,101121.76
2018-02-13T05:54:55.266Z,101116.70
2018-02-13T05:57:22.777Z,101120.84
2018-02-13T05:59:50.289Z,101118.72
2018-02-13T06:02:17.842Z,101122.80
2018-02-13T06:04:45.353Z,101120.05
2018-02-13T06:07:12.859Z,101119.35
2018-02-13T06:09:40.411Z,101118.72
2018-02-13T06:12:07.929Z,101126.02
2018-02-13T06:14:35.490Z,101128.24
2018-02-13T06:17:03.026Z,101127.33
2018-02-13T06:19:30.534Z,101130.91
2018-02-13T06:21:58.050Z,101136.94
2018-02-13T06:24:25.561Z,101133.36
2018-02-13T06:26:53.159Z,101141.00
2018-02-13T06:29:20.677Z,101137.52
2018-02-13T06:31:48.532Z,101141.50
2018-02-13T06:34:16.079Z,101136.23
2018-02-13T06:36:43.609Z,101140.38
2018-02-13T06:39:11.113Z,101139.19
2018-02-13T06:41:38.633Z,101137.64
2018-02-13T06:44:06.165Z,101148.15
2018-02-13T06:46:33.735Z,101142.41
2018-02-13T06:49:01.303Z,101139.26
2018-02-13T06:51:28.825Z,101145.62
2018-02-13T06:53:56.380Z,101148.06
2018-02-13T06:56:23.909Z,101143.16
2018-02-13T06:58:51.454Z,101142.67
2018-02-13T07:01:19.086Z,101143.66
2018-02-13T07:03:46.729Z,101146.61
2018-02-13T07:06:14.288Z,101150.23
2018-02-13T07:08:41.793Z,101146.61
2018-02-13T07:11:09.320Z,101147.07
2018-02-13T07:13:36.859Z,101154.80
2018-02-13T07:16:04.365Z,101149.80
2018-02-13T07:18:31.985Z,101157.06
2018-02-13T07:20:59.525Z,101158.97
2018-02-13T07:23:27.076Z,101155.94
2018-02-13T07:25:54.620Z,101160.72
2018-02-13T07:28:22.200Z,101164.62
2018-02-13T07:30:49.734Z,101165.53
2018-02-13T07:33:17.243Z,101170.14
2018-02-13T07:35:44.823Z,101172.54
2018-02-13T07:38:12.330Z,101171.84
2018-02-13T07:40:39.853Z,101173.88
2018-02-13T07:43:07.407Z,101177.66
2018-02-13T07:45:34.918Z,101173.17
2018-02-13T07:48:02.430Z,101176.53
2018-02-13T07:50:29.952Z,101181.77
2018-02-13T07:52:57.493Z,101184.09
2018-02-13T07:55:25.086Z,101180.30
2018-02-13T07:57:52.601Z,101179.48
2018-02-13T08:00:20.130Z,101184.25
2018-02-13T08:02:47.660Z,101183.94
2018-02-13T08:05:15.192Z,101186.25
2018-02-13T08:07:42.780Z,101179.19
2018-02-13T08:10:10.309Z,101187.36
2018-02-13T08:12:37.827Z,101182.53
2018-02-13T08:15:05.559Z,101183.98
2018-02-13T08:17:33.076Z,101187.72
2018-02-13T08:20:00.680Z,101189.34
2018-02-13T08:22:28.319Z,101189.98
2018-02-13T08:24:55.882Z,101180.11
2018-02-13T08:27:23.424Z,101179.02
2018-02-13T08:29:50.955Z,101174.49
2018-02-13T08:32:18.485Z,101180.07
2018-02-13T08:34:46.006Z,101179.03
2018-02-13T08:37:13.537Z,101180.78
2018-02-13T08:39:41.073Z,101184.05
2018-02-13T08:42:08.694Z,101180.95
2018-02-13T08:44:36.223Z,101179.33
2018-02-13T08:47:03.728Z,101182.87
2018-02-13T08:49:31.284Z,101183.08
2018-02-13T08:51:59.005Z,101183.92
2018-02-13T08:54:26.593Z,101177.07
2018-02-13T08:56:54.149Z,101187.43
2018-02-13T08:59:21.712Z,101186.23
2018-02-13T09:01:49.241Z,101181.34
2018-02-13T09:04:16.794Z,101175.83
2018-02-13T09:06:44.384Z,101179.45
2018-02-13T09:09:11.905Z,101181.02
2018-02-13T09:11:39.413Z,101180.25
2018-02-13T09:14:06.956Z,101182.60
2018-02-13T09:16:34.494Z,101181.63
2018-02-13T09:19:02.061Z,101177.92
2018-02-13T09:21:29.664Z,101175.52
2018-02-13T09:23:57.176Z,101171.11
2018-02-13T09:26:24.720Z,101172.84
2018-02-13T09:28:52.245Z,101175.83
2018-02-13T09:31:19.780Z,101167.92
2018-02-13T09:33:47.326Z,101164.61
2018-02-13T09:36:14.866Z,101167.39
2018-02-13T09:38:42.398Z,101169.20
2018-02-13T09:41:09.939Z,101161.12
2018-02-13T09:43:37.460Z,101170.48
2018-02-13T09:46:04.991Z,101168.41
2018-02-13T09:48:32.543Z,101164.72
2018-02-13T09:51:00.089Z,101166.63
2018-02-13T09:53:27.620Z,101168.56
2018-02-13T09:55:55.125Z,101164.39
2018-02-13T09:58:22.630Z,101166.65
2018-02-13T10:00:50.155Z,101160.20
2018-02-13T10:03:17.718Z,101163.23
2018-02-13T10:05:45.415Z,101158.02
2018-02-13T10:08:12.947Z,101166.05
2018-02-13T10:10:40.462Z,101161.62
2018-02-13T10:13:08.003Z,101160.48
2018-02-13T10:15:35.545Z,101159.67
2018-02-13T10:18:03.098Z,101158.40
2018-02-13T10:20:30.730Z,101160.80
2018-02-13T10:22:58.253Z,101154.87
2018-02-13T10:25:25.782Z,101158.66
2018-02-13T10:27:53.460Z,101153.88
2018-02-13T10:30:20.981Z,101150.94
2018-02-13T10:32:48.525Z,101149.41
2018-02-13T10:35:16.115Z,101148.84
2018-02-13T10:37:43.613Z,101152.15
2018-02-13T10:40:11.142Z,101143.59
2018-02-13T10:42:38.797Z,101142.09
2018-02-13T10:45:06.381Z,101143.59
2018-02-13T10:47:33.920Z,101136.13
2018-02-13T10:50:01.450Z,101140.50
2018-02-13T10:52:28.979Z,101142.77
2018-02-13T10:54:56.516Z,101139.90
2018-02-13T10:57:24.042Z,101142.25
2018-02-13T10:59:51.610Z,101140.37
2018-02-13T11:02:22.932Z,101142.05
2018-02-13T11:04:50.469Z,101136.23
2018-02-13T11:07:18.017Z,101133.23
2018-02-13T11:09:45.550Z,101137.09
2018-02-13T11:12:13.073Z,101133.02
2018-02-13T11:14:40.769Z,101134.12
2018-02-13T11:17:08.335Z,101131.12
2018-02-13T11:19:35.853Z,101127.48
2018-02-13T11:22:03.384Z,101130.14
2018-02-13T11:24:30.914Z,101129.14
2018-02-13T11:26:58.415Z,101122.58
2018-02-13T11:29:25.940Z,101124.61
2018-02-13T11:31:53.564Z,101125.80
2018-02-13T11:34:21.076Z,101120.97
2018-02-13T11:36:48.636Z,101120.80
2018-02-13T11:39:16.192Z,101116.00
2018-02-13T11:41:43.704Z,101120.53
2018-02-13T11:44:11.252Z,101117.35
2018-02-13T11:46:38.768Z,101111.86
2018-02-13T11:49:06.338Z,101111.33
2018-02-13T11:51:33.865Z,101108.45
2018-02-13T11:54:01.398Z,101109.01
2018-02-13T11:56:28.978Z,101111.19
2018-02-13T11:58:56.507Z,101101.67
2018-02-13T12:01:24.072Z,101099.09
2018-02-13T12:03:51.630Z,101102.27
2018-02-13T12:06:19.176Z,101103.41
2018-02-13T12:08:46.725Z,101101.34
2018-02-13T12:11:14.311Z,101091.13
2018-02-13T12:13:41.862Z,101093.62
2018-02-13T12:16:09.405Z,101084.50
2018-02-13T12:18:36.943Z,101085.47
2018-02-13T12:21:04.560Z,101080.67
2018-02-13T12:23:32.088Z,101082.17
2018-02-13T12:25:59.685Z,101088.20
2018-02-13T12:28:27.256Z,101088.61
2018-02-13T12:30:54.811Z,101073.66
2018-02-13T12:33:22.452Z,101073.11
2018-02-13T12:35:49.995Z,101067.37
2018-02-13T12:38:17.581Z,101062.98
2018-02-13T12:40:45.153Z,101065.62
2018-02-13T12:43:12.683Z,101059.88
2018-02-13T12:45:40.189Z,101058.31
2018-02-13T12:48:07.968Z,101052.51
2018-02-13T12:50:35.473Z,101053.25
2018-02-13T12:53:03.025Z,101049.22
2018-02-13T12:55:30.600Z,101049.34
2018-02-13T12:57:58.118Z,101043.52
2018-02-13T13:00:25.680Z,101033.97
2018-02-13T13:02:53.213Z,101038.73
2018-02-13T13:05:20.761Z,101037.46
2018-02-13T13:07:48.408Z,101037.54
2018-02-13T13:10:15.938Z,101043.05
2018-02-13T13:12:43.517Z,101032.42
2018-02-13T13:15:11.131Z,101033.06
2018-02-13T13:17:38.659Z,101031.02
2018-02-13T13:20:06.188Z,101026.04
2018-02-13T13:22:33.757Z,101029.56
2018-02-13T13:25:01.238Z,101030.44
2018-02-13T13:27:28.809Z,101027.72
2018-02-13T13:29:56.285Z,101025.66
2018-02-13T13:32:23.773Z,101021.55
2018-02-13T13:34:51.241Z,101023.72
2018-02-13T13:37:18.726Z,101018.04
2018-02-13T13:39:46.199Z,101018.25
2018-02-13T13:42:13.758Z,101017.31
2018-02-13T13:44:41.345Z,101015.14
2018-02-13T13:47:08.798Z,101014.03
2018-02-13T13:49:36.423Z,101012.68
2018-02-13T13:52:03.942Z,101014.37
2018-02-13T13:54:31.398Z,101014.03
2018-02-13T13:56:58.958Z,101015.34
2018-02-13T13:59:26.421Z,101012.46
2018-02-13T14:01:53.877Z,101012.70
2018-02-13T14:04:21.395Z,101004.30
2018-02-13T14:06:48.849Z,100997.31
2018-02-13T14:09:16.318Z,101003.72
2018-02-13T14:11:43.782Z,101005.09
2018-02-13T14:14:11.270Z,101007.68
2018-02-13T14:16:38.734Z,101003.51
2018-02-13T14:19:08.733Z,100998.74
2018-02-13T14:21:36.256Z,101004.06
2018-02-13T14:24:03.712Z,101003.94
2018-02-13T14:26:31.165Z,100998.71
2018-02-13T14:28:58.655Z,100999.53
2018-02-13T14:31:26.113Z,101004.31
2018-02-13T14:33:53.572Z,101005.30
2018-02-13T14:36:21.043Z,101003.22
2018-02-13T14:38:48.490Z,101005.15
2018-02-13T14:41:15.978Z,101003.85
2018-02-13T14:43:43.439Z,101007.69
2018-02-13T14:46:10.895Z,101013.42
2018-02-13T14:48:38.490Z,101011.67
2018-02-13T14:51:06.046Z,101012.80
2018-02-13T14:53:33.501Z,101018.45
2018-02-13T14:56:01.058Z,101024.13
2018-02-13T14:58:28.521Z,101021.20
2018-02-13T15:00:55.977Z,101023.11
2018-02-13T15:03:23.449Z,101018.22
2018-02-13T15:05:50.942Z,101019.01
2018-02-13T15:08:18.395Z,101024.10
2018-02-13T15:10:45.851Z,101022.04
2018-02-13T15:13:13.325Z,101022.66
2018-02-13T15:15:40.856Z,101027.30
2018-02-13T15:18:13.243Z,101021.92
2018-02-13T15:20:40.746Z,101031.02
2018-02-13T15:23:08.206Z,101033.59
2018-02-13T15:25:35.670Z,101036.48
2018-02-13T15:28:03.122Z,101037.45
2018-02-13T15:30:30.598Z,101040.80
2018-02-13T15:32:58.056Z,101041.75
2018-02-13T15:35:25.519Z,101044.13
2018-02-13T15:37:53.046Z,101037.48
2018-02-13T15:40:20.601Z,101048.33
2018-02-13T15:42:48.104Z,101042.73
2018-02-13T15:45:15.598Z,101041.61
2018-02-13T15:47:43.058Z,101041.30
2018-02-13T15:50:10.514Z,101049.20
2018-02-13T15:52:37.982Z,101052.06
2018-02-13T15:55:05.602Z,101047.52
2018-02-13T15:57:33.053Z,101048.59
2018-02-13T16:00:00.526Z,101055.98
2018-02-13T16:02:28.225Z,101051.41
2018-02-13T16:04:55.693Z,101050.84
2018-02-13T16:07:23.154Z,101053.28
2018-02-13T16:09:50.652Z,101050.72
2018-02-13T16:12:18.188Z,101050.02
2018-02-13T16:14:45.650Z,101049.64
2018-02-13T16:17:13.130Z,101055.10
2018-02-13T16:19:40.581Z,101048.83
2018-02-13T16:22:08.063Z,101054.23
2018-02-13T16:24:35.521Z,101051.30
2018-02-13T16:27:03.043Z,101053.44
2018-02-13T16:29:30.504Z,101047.88
2018-02-13T16:31:57.972Z,101047.89
2018-02-13T16:34:25.520Z,101038.15
2018-02-13T16:36:53.039Z,101046.45
2018-02-13T16:39:20.511Z,101042.13
2018-02-13T16:41:47.969Z,101042.74
2018-02-13T16:44:15.502Z,101046.55
2018-02-13T16:46:42.958Z,101044.38
2018-02-13T16:49:10.415Z,101047.89
2018-02-13T16:51:37.981Z,101047.06
2018-02-13T16:54:05.436Z,101052.45
2018-02-13T16:56:32.886Z,101050.03
2018-02-13T16:59:00.461Z,101054.97
2018-02-13T17:01:27.920Z,101047.70
2018-02-13T17:03:55.374Z,101054.30
2018-02-13T17:06:22.858Z,101052.22
2018-02-13T17:08:50.491Z,101046.97
2018-02-13T17:11:17.951Z,101055.55
2018-02-13T17:13:45.449Z,101057.80
2018-02-13T17:16:12.936Z,101054.64
2018-02-13T17:18:41.346Z,101066.27
2018-02-13T17:21:08.893Z,101060.59
2018-02-13T17:23:36.378Z,101060.61
2018-02-13T17:26:03.870Z,101056.84
2018-02-13T17:28:31.380Z,101056.52
2018-02-13T17:30:58.837Z,101057.11
2018-02-13T17:33:26.321Z,101063.69
2018-02-13T17:35:53.769Z,101060.44
2018-02-13T17:38:21.231Z,101066.80
2018-02-13T17:40:48.725Z,101072.91
2018-02-13T17:43:16.183Z,101062.78
2018-02-13T17:45:43.630Z,101074.08
2018-02-13T17:48:11.097Z,101075.98
2018-02-13T17:50:38.561Z,101077.31
2018-02-13T17:53:06.025Z,101075.82
2018-02-13T17:55:33.483Z,101080.68
2018-02-13T17:58:00.941Z,101082.00
2018-02-13T18:00:28.393Z,101083.08
2018-02-13T18:02:55.863Z,101082.81
2018-02-13T18:05:23.330Z,101088.86
2018-02-13T18:07:51.138Z,101090.62
2018-02-13T18:10:18.588Z,101090.72
2018-02-13T18:12:46.042Z,101092.29
2018-02-13T18:15:13.578Z,101097.98
2018-02-13T18:17:41.032Z,101096.97
2018-02-13T18:20:08.525Z,101100.14
2018-02-13T18:22:36.047Z,101092.19
2018-02-13T18:25:03.503Z,101093.52
2018-02-13T18:27:31.000Z,101100.53
2018-02-13T18:29:58.457Z,101094.91
2018-02-13T18:32:26.025Z,101100.41
2018-02-13T18:34:53.486Z,101103.90
2018-02-13T18:37:20.988Z,101109.02
2018-02-13T18:39:48.545Z,101101.48
2018-02-13T18:42:16.025Z,101106.48
2018-02-13T18:44:43.473Z,101104.52
2018-02-13T18:47:10.959Z,101111.63
2018-02-13T18:49:38.445Z,101110.67
2018-02-13T18:52:05.943Z,101103.94
2018-02-13T18:54:33.405Z,101102.58
2018-02-13T18:57:00.884Z,101107.06
2018-02-13T18:59:28.455Z,101111.81
2018-02-13T19:01:56.110Z,101118.32
2018-02-13T19:04:23.560Z,101117.22
2018-02-13T19:06:51.009Z,101116.87
2018-02-13T19:09:19.031Z,101114.77
2018-02-13T19:11:47.627Z,101121.41
2018-02-13T19:14:15.241Z,101116.90
2018-02-13T19:19:10.318Z,101116.19
2018-02-13T19:21:37.777Z,101115.50
2018-02-13T19:24:05.356Z,101123.78
2018-02-13T19:26:32.814Z,101121.53
2018-02-13T19:29:00.310Z,101123.66
2018-02-13T19:31:27.770Z,101120.66
2018-02-13T19:33:55.243Z,101122.05
2018-02-13T19:36:22.720Z,101126.23
2018-02-13T19:38:50.276Z,101124.48
2018-02-13T19:41:17.745Z,101129.70
2018-02-13T19:43:45.210Z,101134.54
2018-02-13T19:46:12.697Z,101129.34
2018-02-13T19:48:40.163Z,101137.26
2018-02-13T19:51:07.650Z,101131.47
2018-02-13T19:53:35.142Z,101138.70
2018-02-13T19:56:02.609Z,101134.78
2018-02-13T19:58:30.106Z,101141.23
2018-02-13T20:00:57.572Z,101139.20
2018-02-13T20:03:25.048Z,101138.42
2018-02-13T20:05:52.539Z,101140.55
2018-02-13T20:08:20.005Z,101145.78
2018-02-13T20:10:47.466Z,101136.49
2018-02-13T20:13:15.886Z,101139.86
2018-02-13T20:15:43.344Z,101147.20
2018-02-13T20:18:10.801Z,101140.09
2018-02-13T20:20:38.278Z,101144.83
2018-02-13T20:23:05.753Z,101143.30
2018-02-13T20:25:33.247Z,101142.20
2018-02-13T20:28:00.708Z,101138.94
2018-02-13T20:30:28.176Z,101141.83
2018-02-13T20:32:55.647Z,101143.56
2018-02-13T20:35:23.107Z,101146.98
2018-02-13T20:37:50.598Z,101146.78
2018-02-13T20:40:18.066Z,101148.48
2018-02-13T20:42:45.547Z,101150.55
2018-02-13T20:45:13.043Z,101149.95
2018-02-13T20:47:40.518Z,101149.03
2018-02-13T20:50:08.009Z,101156.84
2018-02-13T20:52:35.602Z,101152.65
2018-02-13T20:55:03.128Z,101153.66
2018-02-13T20:57:30.642Z,101156.79
2018-02-13T20:59:58.155Z,101154.02
2018-02-13T21:02:25.615Z,101155.85
2018-02-13T21:04:53.077Z,101150.60
2018-02-13T21:07:20.557Z,101156.59
2018-02-13T21:09:48.101Z,101165.02
2018-02-13T21:12:15.558Z,101168.07
2018-02-13T21:14:43.044Z,101167.33
2018-02-13T21:17:10.549Z,101171.22
2018-02-13T21:19:38.073Z,101166.56
2018-02-13T21:22:05.621Z,101167.42
2018-02-13T21:24:33.188Z,101173.72
2018-02-13T21:27:00.817Z,101179.27
2018-02-13T21:29:28.344Z,101175.24
2018-02-13T21:31:55.812Z,101175.07
2018-02-13T21:34:23.316Z,101172.09
2018-02-13T21:36:50.797Z,101168.95
2018-02-13T21:39:18.264Z,101167.30
2018-02-13T21:41:45.742Z,101166.16
2018-02-13T21:44:13.197Z,101171.09
2018-02-13T21:46:40.653Z,101166.41
2018-02-13T21:49:08.167Z,101163.08
2018-02-13T21:51:35.622Z,101168.48
2018-02-13T21:54:03.098Z,101163.95
2018-02-13T21:56:30.573Z,101164.02
2018-02-13T21:58:58.034Z,101165.58
2018-02-13T22:01:25.519Z,101160.75
2018-02-13T22:03:52.978Z,101164.83
2018-02-13T22:06:20.474Z,101163.63
2018-02-13T22:08:47.926Z,101165.37
2018-02-13T22:11:15.381Z,101167.20
2018-02-13T22:13:42.898Z,101170.78
2018-02-13T22:16:10.378Z,101166.17
2018-02-13T22:18:37.841Z,101166.61
2018-02-13T22:21:05.406Z,101170.95
2018-02-13T22:23:32.876Z,101170.13
2018-02-13T22:26:00.343Z,101174.41
2018-02-13T22:28:27.825Z,101176.88
2018-02-13T22:30:55.289Z,101177.92
2018-02-13T22:33:22.791Z,101182.11
2018-02-13T22:35:50.259Z,101178.82
2018-02-13T22:38:17.810Z,101181.81
2018-02-13T22:40:45.276Z,101175.39
2018-02-13T22:43:12.770Z,101177.36
2018-02-13T22:45:40.277Z,101182.95
2018-02-13T22:48:07.729Z,101182.49
2018-02-13T22:50:35.187Z,101188.71
2018-02-13T22:53:02.713Z,101188.67
2018-02-13T22:55:30.193Z,101191.55
2018-02-13T22:57:57.649Z,101197.64
2018-02-13T23:00:25.213Z,101200.39
2018-02-13T23:02:52.677Z,101199.01
2018-02-13T23:07:53.960Z,101199.80
2018-02-13T23:10:21.437Z,101198.84
2018-02-13T23:12:48.969Z,101205.50
2018-02-13T23:15:16.433Z,101197.03
2018-02-13T23:17:44.077Z,101197.23
2018-02-13T23:20:11.534Z,101211.03
2018-02-13T23:22:38.993Z,101198.23
2018-02-13T23:25:06.509Z,101206.27
2018-02-13T23:27:34.011Z,101202.27
2018-02-13T23:30:01.573Z,101208.59
2018-02-13T23:32:29.033Z,101208.80
2018-02-13T23:34:56.526Z,101198.08
2018-02-13T23:37:24.038Z,101209.42
2018-02-13T23:39:51.602Z,101208.72
2018-02-13T23:42:19.086Z,101207.59
2018-02-13T23:44:46.576Z,101211.25
2018-02-13T23:47:14.078Z,101215.16
2018-02-13T23:49:41.530Z,101210.55
2018-02-13T23:52:09.028Z,101218.86
2018-02-13T23:54:36.481Z,101209.01
2018-02-13T23:57:03.943Z,101213.28
2018-02-13T23:59:31.450Z,101216.28
